Observations for FARNBOROUGH, United Kingdom (EGLF)

EGLF 171950Z 20009KT 9999 FEW044 06/03 Q1023
EGLF 171920Z 19008KT 9999 FEW044 06/03 Q1023
EGLF 171850Z 2006KT 170V230 9999 FEW042 07/04 Q1023 
EGLF 171820Z 19005KT 9999 FEW040 07/03 Q1023
EGLF 171750Z 21008KT 9999 FEW037 07/03 Q1022
EGLF 171720Z 20006KT 9999 SCT036 08/03 Q1022
EGLF 171650Z 18007KT 9999 SCT040 08/02 Q1022
EGLF 171620Z 23006KT 9999 SCT040 08/02 Q1022
EGLF 171550Z 21007KT 9999 FEW040 09/02 Q1022
EGLF 171520Z 21007KT 180V250 9999 FEW040 10/01 Q1022
EGLF 171450Z 23007KT 190V280 9999 FEW036 09/01 Q1022
EGLF 171420Z 25009KT 25009KT 9999 SCT036 09/01 Q1022
EGLF 171350Z 21009KT 180V250 9999 SCT034 10/02 Q1022
EGLF 171320Z 25009KT 9999 SCT032 10/02 Q1022
EGLF 171250Z 22505KT 170V270 9999 FEW032 09/01 Q1022
EGLF 171220Z 19007KT 9999 FEW028 09/02 Q1022
EGLF 171150Z 16006KT 130V190 9999 FEW026 09/02 Q1022
EGLF 171120Z 16006KT 9999 FEW040 08/03 Q1022
EGLF 171050Z 15005KT 120V190 9999 FEW042 08/02 Q1022
EGLF 171020Z 15005KT CAVOK 07/04 Q1022